PWSweather.com
Personal Weather Stations
Station Observations
KJ4AJP
Beautiful Downtown Gardner, Martin, TN 38237

Beautiful Downtown GardnerMartin, TN 38237

Lat: 36.358, Lon: -88.8994

Elevation: 384.3

Station Type: TP1080WC

http://weather.mambm.com/

High Low Average
Temperature 45.7°F7.6°C 32.9°F0.5°C 40.5°F4.7°C
Dew Point 45.4°F7.4°C 32.7°F0.4°C 39.9°F4.4°C
Winds 6.0 mph 9.7 kmh Calm Calm 1.0 mph SE1.6 kmh SE
Wind Gusts 12.1 mph19.5 kmh -- 5.0 mph8.0 kmh
Humidity 99% 93% 98%
Pressure 30.25 in1024.4 mb 30.01 in1016.3 mb -
Precipitation 0.79 in20.1 mm - -
Hour Temp Dew Point Humidity Winds Wind Gusts Pressure Precip Precip Rate Daily Precip Total
12:00 AM 40.5°F4.7°C 38.6°F3.7°C 93% 0.7 mph NNE1.1 kmh NNE 5.4 mph8.7 kmh 30.21 in1023.0 mb 0.00 in0.0 mm 0.00 in0.0 mm 0.00 in0.0 mm
12:15 AM 40.3°F4.6°C 38.4°F3.6°C 93% 2.2 mph NE3.5 kmh NE 3.8 mph6.1 kmh 30.21 in1023.0 mb 0.00 in0.0 mm 0.00 in0.0 mm 0.00 in0.0 mm
12:30 AM 40.1°F4.5°C 38.2°F3.4°C 93% 0.7 mph NE1.1 kmh NE 6.0 mph9.7 kmh 30.19 in1022.4 mb 0.00 in0.0 mm 0.00 in0.0 mm 0.00 in0.0 mm
12:45 AM 39.9°F4.4°C 38.1°F3.4°C 93% 0.7 mph ENE1.1 kmh ENE 3.8 mph6.1 kmh 30.20 in1022.7 mb 0.00 in0.0 mm 0.00 in0.0 mm 0.00 in0.0 mm
01:00 AM 39.7°F4.3°C 37.9°F3.3°C 93% 0.7 mph NE1.1 kmh NE 4.5 mph7.2 kmh 30.19 in1022.4 mb 0.00 in0.0 mm 0.00 in0.0 mm 0.00 in0.0 mm
01:15 AM 39.6°F4.2°C 37.7°F3.2°C 93% Calm Calm 3.1 mph5.0 kmh 30.20 in1022.7 mb 0.00 in0.0 mm 0.00 in0.0 mm 0.00 in0.0 mm
01:30 AM 39.0°F3.9°C 37.2°F2.9°C 93% Calm Calm 3.1 mph5.0 kmh 30.19 in1022.4 mb 0.00 in0.0 mm 0.00 in0.0 mm 0.00 in0.0 mm
01:45 AM 39.4°F4.1°C 37.5°F3.1°C 93% 1.6 mph ENE2.6 kmh ENE 3.8 mph6.1 kmh 30.17 in1021.7 mb 0.00 in0.0 mm 0.00 in0.0 mm 0.00 in0.0 mm
02:00 AM 39.4°F4.1°C 37.8°F3.2°C 94% Calm Calm 4.5 mph7.2 kmh 30.17 in1021.7 mb 0.00 in0.0 mm 0.00 in0.0 mm 0.00 in0.0 mm
02:15 AM 39.2°F4.0°C 37.6°F3.1°C 94% 1.6 mph ENE2.6 kmh ENE 5.4 mph8.7 kmh 30.15 in1021.0 mb 0.00 in0.0 mm 0.00 in0.0 mm 0.00 in0.0 mm
02:30 AM 39.4°F4.1°C 37.8°F3.2°C 94% 0.7 mph NE1.1 kmh NE 4.5 mph7.2 kmh 30.14 in1020.7 mb 0.00 in0.0 mm 0.00 in0.0 mm 0.00 in0.0 mm
02:45 AM 39.4°F4.1°C 37.8°F3.2°C 94% 2.2 mph ENE3.5 kmh ENE 5.4 mph8.7 kmh 30.14 in1020.7 mb 0.00 in0.0 mm 0.00 in0.0 mm 0.00 in0.0 mm
03:00 AM 39.4°F4.1°C 37.8°F3.2°C 94% 3.1 mph E5.0 kmh E 8.3 mph13.4 kmh 30.12 in1020.0 mb 0.00 in0.0 mm 0.00 in0.0 mm 0.00 in0.0 mm
03:15 AM 39.6°F4.2°C 38.0°F3.3°C 94% 0.7 mph E1.1 kmh E 6.9 mph11.1 kmh 30.13 in1020.3 mb 0.00 in0.0 mm 0.00 in0.0 mm 0.00 in0.0 mm
03:30 AM 39.6°F4.2°C 38.0°F3.3°C 94% 0.7 mph NE1.1 kmh NE 6.0 mph9.7 kmh 30.11 in1019.6 mb 0.00 in0.0 mm 0.00 in0.0 mm 0.00 in0.0 mm
03:45 AM 39.6°F4.2°C 38.0°F3.3°C 94% 1.6 mph E2.6 kmh E 4.5 mph7.2 kmh 30.11 in1019.6 mb 0.00 in0.0 mm 0.00 in0.0 mm 0.00 in0.0 mm
04:00 AM 39.6°F4.2°C 38.0°F3.3°C 94% 1.6 mph ENE2.6 kmh ENE 3.8 mph6.1 kmh 30.12 in1020.0 mb 0.00 in0.0 mm 0.00 in0.0 mm 0.00 in0.0 mm
04:15 AM 39.4°F4.1°C 38.1°F3.4°C 95% 1.6 mph ENE2.6 kmh ENE 3.1 mph5.0 kmh 30.11 in1019.6 mb 0.00 in0.0 mm 0.00 in0.0 mm 0.00 in0.0 mm
04:30 AM 39.4°F4.1°C 38.3°F3.5°C 96% 2.2 mph NE3.5 kmh NE 3.8 mph6.1 kmh 30.10 in1019.3 mb 0.01 in0.3 mm 0.04 in1.0 mm 0.01 in0.3 mm
04:45 AM 39.2°F4.0°C 38.4°F3.6°C 97% 0.7 mph N1.1 kmh N 3.1 mph5.0 kmh 30.09 in1019.0 mb 0.01 in0.3 mm 0.00 in0.0 mm 0.01 in0.3 mm
05:00 AM 38.8°F3.8°C 38.3°F3.5°C 98% Calm Calm 4.5 mph7.2 kmh 30.11 in1019.6 mb 0.01 in0.3 mm 0.00 in0.0 mm 0.01 in0.3 mm
05:15 AM 38.8°F3.8°C 38.3°F3.5°C 98% 0.7 mph NNE1.1 kmh NNE 2.2 mph3.5 kmh 30.11 in1019.6 mb 0.02 in0.5 mm 0.04 in1.0 mm 0.02 in0.5 mm
05:30 AM 38.7°F3.7°C 38.4°F3.6°C 99% 2.2 mph E3.5 kmh E 6.0 mph9.7 kmh 30.06 in1017.9 mb 0.05 in1.3 mm 0.12 in3.0 mm 0.06 in1.5 mm
05:45 AM 38.5°F3.6°C 38.2°F3.4°C 99% 0.7 mph NW1.1 kmh NW 3.1 mph5.0 kmh 30.10 in1019.3 mb 0.06 in1.5 mm 0.04 in1.0 mm 0.07 in1.8 mm
06:00 AM 38.3°F3.5°C 38.0°F3.3°C 99% 1.6 mph NE2.6 kmh NE 5.4 mph8.7 kmh 30.06 in1017.9 mb 0.08 in2.0 mm 0.03 in0.8 mm 0.09 in2.3 mm
06:15 AM 38.1°F3.4°C 37.9°F3.3°C 99% Calm Calm 3.1 mph5.0 kmh 30.09 in1019.0 mb 0.07 in1.8 mm 0.00 in0.0 mm 0.11 in2.8 mm
06:30 AM 38.1°F3.4°C 37.9°F3.3°C 99% 0.7 mph NW1.1 kmh NW 2.2 mph3.5 kmh 30.09 in1019.0 mb 0.07 in1.8 mm 0.00 in0.0 mm 0.13 in3.3 mm
06:45 AM 38.1°F3.4°C 37.9°F3.3°C 99% 1.6 mph E2.6 kmh E 4.5 mph7.2 kmh 30.07 in1018.3 mb 0.07 in1.8 mm 0.00 in0.0 mm 0.14 in3.6 mm
07:00 AM 38.1°F3.4°C 37.9°F3.3°C 99% 2.2 mph N3.5 kmh N 5.4 mph8.7 kmh 30.09 in1019.0 mb 0.06 in1.5 mm 0.00 in0.0 mm 0.15 in3.8 mm
07:15 AM 38.1°F3.4°C 37.9°F3.3°C 99% 2.2 mph NNE3.5 kmh NNE 6.0 mph9.7 kmh 30.07 in1018.3 mb 0.07 in1.8 mm 0.04 in1.0 mm 0.18 in4.6 mm
07:30 AM 38.1°F3.4°C 37.9°F3.3°C 99% 1.6 mph N2.6 kmh N 6.9 mph11.1 kmh 30.07 in1018.3 mb 0.07 in1.8 mm 0.00 in0.0 mm 0.20 in5.1 mm
07:45 AM 38.1°F3.4°C 37.9°F3.3°C 99% 3.1 mph N5.0 kmh N 6.9 mph11.1 kmh 30.07 in1018.3 mb 0.12 in3.0 mm 0.20 in5.1 mm 0.26 in6.6 mm
08:00 AM 37.9°F3.3°C 37.7°F3.2°C 99% 1.6 mph NNE2.6 kmh NNE 6.0 mph9.7 kmh 30.05 in1017.6 mb 0.18 in4.6 mm 0.08 in2.0 mm 0.33 in8.4 mm
08:15 AM 38.1°F3.4°C 37.9°F3.3°C 99% 0.7 mph NNE1.1 kmh NNE 3.8 mph6.1 kmh 30.07 in1018.3 mb 0.22 in5.6 mm 0.16 in4.1 mm 0.40 in10.2 mm
08:30 AM 38.1°F3.4°C 37.9°F3.3°C 99% 1.6 mph N2.6 kmh N 6.0 mph9.7 kmh 30.09 in1019.0 mb 0.26 in6.6 mm 0.16 in4.1 mm 0.47 in11.9 mm
08:45 AM 38.1°F3.4°C 37.9°F3.3°C 99% 3.1 mph N5.0 kmh N 6.9 mph11.1 kmh 30.09 in1019.0 mb 0.27 in6.9 mm 0.04 in1.0 mm 0.53 in13.5 mm
09:00 AM 38.3°F3.5°C 38.0°F3.3°C 99% Calm Calm 9.2 mph14.8 kmh 30.09 in1019.0 mb 0.24 in6.1 mm 0.00 in0.0 mm 0.57 in14.5 mm
09:15 AM 38.3°F3.5°C 38.0°F3.3°C 99% 3.1 mph E5.0 kmh E 6.0 mph9.7 kmh 30.08 in1018.6 mb 0.19 in4.8 mm 0.00 in0.0 mm 0.60 in15.2 mm
09:30 AM 38.7°F3.7°C 38.4°F3.6°C 99% Calm Calm 2.2 mph3.5 kmh 30.09 in1019.0 mb 0.14 in3.6 mm 0.00 in0.0 mm 0.63 in16.0 mm
09:45 AM 38.8°F3.8°C 38.6°F3.7°C 99% 5.4 mph E8.7 kmh E 8.3 mph13.4 kmh 30.04 in1017.3 mb 0.12 in3.0 mm 0.00 in0.0 mm 0.65 in16.5 mm
10:00 AM 39.0°F3.9°C 38.8°F3.8°C 99% 1.6 mph ENE2.6 kmh ENE 4.5 mph7.2 kmh 30.05 in1017.6 mb 0.09 in2.3 mm 0.00 in0.0 mm 0.66 in16.8 mm
10:15 AM 39.2°F4.0°C 38.9°F3.8°C 99% 2.2 mph ESE3.5 kmh ESE 3.8 mph6.1 kmh 30.05 in1017.6 mb 0.08 in2.0 mm 0.00 in0.0 mm 0.70 in17.8 mm
10:30 AM 39.4°F4.1°C 39.1°F3.9°C 99% 0.7 mph SE1.1 kmh SE 3.1 mph5.0 kmh 30.06 in1017.9 mb 0.08 in2.0 mm 0.00 in0.0 mm 0.71 in18.0 mm
10:45 AM 39.7°F4.3°C 39.5°F4.2°C 99% 0.7 mph ESE1.1 kmh ESE 3.8 mph6.1 kmh 30.04 in1017.3 mb 0.11 in2.8 mm 0.12 in3.0 mm 0.76 in19.3 mm
11:00 AM 40.1°F4.5°C 39.8°F4.3°C 99% 3.1 mph SE5.0 kmh SE 6.9 mph11.1 kmh 30.02 in1016.6 mb 0.11 in2.8 mm 0.00 in0.0 mm 0.77 in19.6 mm
11:15 AM 40.8°F4.9°C 40.6°F4.8°C 99% 0.7 mph S1.1 kmh S 3.8 mph6.1 kmh 30.04 in1017.3 mb 0.08 in2.0 mm 0.00 in0.0 mm 0.78 in19.8 mm
11:30 AM 41.2°F5.1°C 40.9°F4.9°C 99% Calm Calm 3.1 mph5.0 kmh 30.05 in1017.6 mb 0.06 in1.5 mm 0.00 in0.0 mm 0.78 in19.8 mm
11:45 AM 41.7°F5.4°C 41.5°F5.3°C 99% 0.7 mph S1.1 kmh S 2.2 mph3.5 kmh 30.03 in1016.9 mb 0.02 in0.5 mm 0.00 in0.0 mm 0.78 in19.8 mm
12:00 PM 42.1°F5.6°C 41.8°F5.4°C 99% 0.7 mph S1.1 kmh S 3.8 mph6.1 kmh 30.04 in1017.3 mb 0.01 in0.3 mm 0.00 in0.0 mm 0.78 in19.8 mm
12:15 PM 42.4°F5.8°C 42.2°F5.7°C 99% 0.7 mph S1.1 kmh S 2.2 mph3.5 kmh 30.03 in1016.9 mb 0.00 in0.0 mm 0.00 in0.0 mm 0.78 in19.8 mm
12:30 PM 42.6°F5.9°C 42.4°F5.8°C 99% 3.1 mph S5.0 kmh S 3.8 mph6.1 kmh 30.02 in1016.6 mb 0.01 in0.3 mm 0.04 in1.0 mm 0.79 in20.1 mm
12:45 PM 43.0°F6.1°C 42.7°F5.9°C 99% 1.6 mph S2.6 kmh S 6.9 mph11.1 kmh 30.02 in1016.6 mb 0.01 in0.3 mm 0.00 in0.0 mm 0.79 in20.1 mm
01:00 PM 43.5°F6.4°C 43.3°F6.3°C 99% 3.1 mph S5.0 kmh S 6.9 mph11.1 kmh 30.02 in1016.6 mb 0.01 in0.3 mm 0.00 in0.0 mm 0.79 in20.1 mm
01:15 PM 44.1°F6.7°C 43.8°F6.6°C 99% 1.6 mph S2.6 kmh S 5.4 mph8.7 kmh 30.02 in1016.6 mb 0.01 in0.3 mm 0.00 in0.0 mm 0.79 in20.1 mm
01:30 PM 44.4°F6.9°C 44.2°F6.8°C 99% 2.2 mph SSW3.5 kmh SSW 4.5 mph7.2 kmh 30.01 in1016.3 mb 0.00 in0.0 mm 0.00 in0.0 mm 0.79 in20.1 mm
01:45 PM 44.8°F7.1°C 44.5°F6.9°C 99% 1.6 mph SW2.6 kmh SW 4.5 mph7.2 kmh 30.02 in1016.6 mb 0.00 in0.0 mm 0.00 in0.0 mm 0.79 in20.1 mm
02:00 PM 45.1°F7.3°C 44.9°F7.2°C 99% 4.5 mph SW7.2 kmh SW 6.9 mph11.1 kmh 30.02 in1016.6 mb 0.00 in0.0 mm 0.00 in0.0 mm 0.79 in20.1 mm
02:15 PM 45.3°F7.4°C 45.1°F7.3°C 99% 4.5 mph SW7.2 kmh SW 7.6 mph12.2 kmh 30.03 in1016.9 mb 0.00 in0.0 mm 0.00 in0.0 mm 0.79 in20.1 mm
02:30 PM 45.3°F7.4°C 45.1°F7.3°C 99% 3.1 mph SW5.0 kmh SW 9.2 mph14.8 kmh 30.03 in1016.9 mb 0.00 in0.0 mm 0.00 in0.0 mm 0.79 in20.1 mm
02:45 PM 45.5°F7.5°C 45.2°F7.3°C 99% 3.8 mph SW6.1 kmh SW 9.2 mph14.8 kmh 30.04 in1017.3 mb 0.00 in0.0 mm 0.00 in0.0 mm 0.79 in20.1 mm
03:00 PM 45.5°F7.5°C 45.2°F7.3°C 99% 4.5 mph WSW7.2 kmh WSW 9.8 mph15.8 kmh 30.05 in1017.6 mb 0.00 in0.0 mm 0.00 in0.0 mm 0.79 in20.1 mm
03:15 PM 45.5°F7.5°C 45.2°F7.3°C 99% 4.5 mph W7.2 kmh W 10.7 mph17.2 kmh 30.05 in1017.6 mb 0.00 in0.0 mm 0.00 in0.0 mm 0.79 in20.1 mm
03:30 PM 45.5°F7.5°C 45.2°F7.3°C 99% 3.8 mph SW6.1 kmh SW 6.9 mph11.1 kmh 30.05 in1017.6 mb 0.00 in0.0 mm 0.00 in0.0 mm 0.79 in20.1 mm
03:45 PM 45.7°F7.6°C 45.4°F7.4°C 99% 6.0 mph WSW9.7 kmh WSW 9.8 mph15.8 kmh 30.06 in1017.9 mb 0.00 in0.0 mm 0.00 in0.0 mm 0.79 in20.1 mm
04:00 PM 45.7°F7.6°C 45.4°F7.4°C 99% 3.1 mph WNW5.0 kmh WNW 7.6 mph12.2 kmh 30.08 in1018.6 mb 0.00 in0.0 mm 0.00 in0.0 mm 0.79 in20.1 mm
04:15 PM 45.5°F7.5°C 45.2°F7.3°C 99% 3.1 mph WSW5.0 kmh WSW 9.8 mph15.8 kmh 30.08 in1018.6 mb 0.00 in0.0 mm 0.00 in0.0 mm 0.79 in20.1 mm
04:30 PM 45.7°F7.6°C 45.4°F7.4°C 99% 2.2 mph W3.5 kmh W 9.8 mph15.8 kmh 30.09 in1019.0 mb 0.00 in0.0 mm 0.00 in0.0 mm 0.79 in20.1 mm
04:45 PM 45.5°F7.5°C 45.2°F7.3°C 99% 2.2 mph WSW3.5 kmh WSW 7.6 mph12.2 kmh 30.09 in1019.0 mb 0.00 in0.0 mm 0.00 in0.0 mm 0.79 in20.1 mm
05:00 PM 45.5°F7.5°C 45.2°F7.3°C 99% 3.8 mph W6.1 kmh W 8.3 mph13.4 kmh 30.11 in1019.6 mb 0.00 in0.0 mm 0.00 in0.0 mm 0.79 in20.1 mm
05:15 PM 45.5°F7.5°C 45.2°F7.3°C 99% 0.7 mph W1.1 kmh W 8.3 mph13.4 kmh 30.12 in1020.0 mb 0.00 in0.0 mm 0.00 in0.0 mm 0.79 in20.1 mm
05:30 PM 45.3°F7.4°C 45.1°F7.3°C 99% 3.8 mph WNW6.1 kmh WNW 9.2 mph14.8 kmh 30.14 in1020.7 mb 0.00 in0.0 mm 0.00 in0.0 mm 0.79 in20.1 mm
05:45 PM 45.0°F7.2°C 44.7°F7.1°C 99% 1.6 mph WNW2.6 kmh WNW 10.7 mph17.2 kmh 30.14 in1020.7 mb 0.00 in0.0 mm 0.00 in0.0 mm 0.79 in20.1 mm
06:00 PM 44.8°F7.1°C 44.5°F6.9°C 99% 1.6 mph WNW2.6 kmh WNW 12.1 mph19.5 kmh 30.16 in1021.3 mb 0.00 in0.0 mm 0.00 in0.0 mm 0.79 in20.1 mm
06:15 PM 44.6°F7.0°C 44.3°F6.8°C 99% 3.8 mph WNW6.1 kmh WNW 6.9 mph11.1 kmh 30.16 in1021.3 mb 0.00 in0.0 mm 0.00 in0.0 mm 0.79 in20.1 mm
06:30 PM 44.6°F7.0°C 44.3°F6.8°C 99% 0.7 mph W1.1 kmh W 6.0 mph9.7 kmh 30.17 in1021.7 mb 0.00 in0.0 mm 0.00 in0.0 mm 0.79 in20.1 mm
06:45 PM 44.4°F6.9°C 44.2°F6.8°C 99% 0.7 mph WNW1.1 kmh WNW 3.8 mph6.1 kmh 30.16 in1021.3 mb 0.00 in0.0 mm 0.00 in0.0 mm 0.79 in20.1 mm
07:00 PM 44.1°F6.7°C 43.8°F6.6°C 99% Calm Calm 1.6 mph2.6 kmh 30.17 in1021.7 mb 0.00 in0.0 mm 0.00 in0.0 mm 0.79 in20.1 mm
07:15 PM 43.2°F6.2°C 42.9°F6.1°C 99% Calm Calm 0.7 mph1.1 kmh 30.18 in1022.0 mb 0.00 in0.0 mm 0.00 in0.0 mm 0.79 in20.1 mm
07:30 PM 42.4°F5.8°C 42.2°F5.7°C 99% 0.7 mph SW1.1 kmh SW 2.2 mph3.5 kmh 30.18 in1022.0 mb 0.00 in0.0 mm 0.00 in0.0 mm 0.79 in20.1 mm
07:45 PM 41.9°F5.5°C 41.6°F5.3°C 99% Calm Calm 0.7 mph1.1 kmh 30.19 in1022.4 mb 0.00 in0.0 mm 0.00 in0.0 mm 0.79 in20.1 mm
08:00 PM 41.2°F5.1°C 40.9°F4.9°C 99% Calm Calm 0.7 mph1.1 kmh 30.20 in1022.7 mb 0.00 in0.0 mm 0.00 in0.0 mm 0.79 in20.1 mm
08:15 PM 40.5°F4.7°C 40.2°F4.6°C 99% Calm Calm -- 30.21 in1023.0 mb 0.00 in0.0 mm 0.00 in0.0 mm 0.79 in20.1 mm
08:30 PM 39.7°F4.3°C 39.5°F4.2°C 99% Calm Calm -- 30.21 in1023.0 mb 0.00 in0.0 mm 0.00 in0.0 mm 0.79 in20.1 mm
08:45 PM 38.7°F3.7°C 38.4°F3.6°C 99% Calm Calm -- 30.22 in1023.4 mb 0.00 in0.0 mm 0.00 in0.0 mm 0.79 in20.1 mm
09:00 PM 37.8°F3.2°C 37.5°F3.1°C 99% Calm Calm -- 30.22 in1023.4 mb 0.00 in0.0 mm 0.00 in0.0 mm 0.79 in20.1 mm
09:15 PM 37.0°F2.8°C 36.8°F2.7°C 99% Calm Calm -- 30.23 in1023.7 mb 0.00 in0.0 mm 0.00 in0.0 mm 0.79 in20.1 mm
09:30 PM 36.7°F2.6°C 36.4°F2.4°C 99% Calm Calm 0.7 mph1.1 kmh 30.23 in1023.7 mb 0.00 in0.0 mm 0.00 in0.0 mm 0.79 in20.1 mm
09:45 PM 36.3°F2.4°C 36.1°F2.3°C 99% Calm Calm 0.7 mph1.1 kmh 30.23 in1023.7 mb 0.00 in0.0 mm 0.00 in0.0 mm 0.79 in20.1 mm
10:00 PM 35.8°F2.1°C 35.5°F1.9°C 99% Calm Calm -- 30.24 in1024.0 mb 0.00 in0.0 mm 0.00 in0.0 mm 0.79 in20.1 mm
10:15 PM 35.4°F1.9°C 35.2°F1.8°C 99% Calm Calm -- 30.24 in1024.0 mb 0.00 in0.0 mm 0.00 in0.0 mm 0.79 in20.1 mm
10:30 PM 35.1°F1.7°C 34.8°F1.6°C 99% Calm Calm 0.7 mph1.1 kmh 30.24 in1024.0 mb 0.00 in0.0 mm 0.00 in0.0 mm 0.79 in20.1 mm
10:45 PM 34.5°F1.4°C 34.3°F1.3°C 99% Calm Calm 1.6 mph2.6 kmh 30.25 in1024.4 mb 0.00 in0.0 mm 0.00 in0.0 mm 0.79 in20.1 mm
11:00 PM 34.2°F1.2°C 33.9°F1.1°C 99% Calm Calm 0.7 mph1.1 kmh 30.25 in1024.4 mb 0.00 in0.0 mm 0.00 in0.0 mm 0.79 in20.1 mm
11:15 PM 33.6°F0.9°C 33.4°F0.8°C 99% Calm Calm 0.7 mph1.1 kmh 30.25 in1024.4 mb 0.00 in0.0 mm 0.00 in0.0 mm 0.79 in20.1 mm
11:30 PM 33.3°F0.7°C 33.0°F0.6°C 99% 0.7 mph SE1.1 kmh SE 1.6 mph2.6 kmh 30.25 in1024.4 mb 0.00 in0.0 mm 0.00 in0.0 mm 0.79 in20.1 mm
11:45 PM 32.9°F0.5°C 32.7°F0.4°C 99% Calm Calm 1.6 mph2.6 kmh 30.24 in1024.0 mb 0.00 in0.0 mm 0.00 in0.0 mm 0.79 in20.1 mm